Airfield :
LOGIN :

Register | Disclaimer

   EN    FR    IT 

 










Legend :    VFR   Marginal VFR   IFR   Intensive IFR   Very Intensive IFR
Visi :
Ceiling :
>= 8 km
>= 3000ft
5 to 8 km
1000 to 3000 ft
1500m to 5 km
500 to 1000 ft
800 to 1500m
200 to 500 ft
< 800m
< 200 ft
Symbols :   Thunderstorms  Fog  Heavy snow  Heavy precipitations  Wind > 20 kt
SIGMETs :     Misc.  Thunderstorms  Icing  Turbulence  Mountain Waves  Volcanic Ashes







- Airport Elevation : 963 ft
- IATA code : TGM


LRTM - Transilvania Târgu Mureş Int.

CURRENT METAR :
  • 130200Z AUTO 24004KT 5000 BR OVC011/// M00/M01 Q1018

EXPIRED METARs :
  • 130130Z AUTO 23005KT 5000 OVC011/// M00/M01 Q1018 RESN
  • 130100Z AUTO 24006KT 5000 -SHSN OVC011/// M00/M01 Q1018
  • 130030Z AUTO 25006KT 5000 BR BKN012/// M00/M01 Q1018
  • 130000Z AUTO 24005KT 5000 FEW013/// BKN077/// M01/M02 Q1018 REUP
  • 122330Z AUTO 24005KT 4600 FEW012/// SCT031/// M00/M01 Q1018 REUP

Expired Forecast.
No reported NOTAMs for that airfield.



MET'MAP, your aeronautical weather chart ! - Copyright ORBIFLY December 2007 - Disclaimer

ORBIFLY MET'MAP TEAM :

Programming & Development : Alexandra Zaïnal
Concept & Development : Baudouin d'Aumeries
Co-Development & Prog : Marc-Olivier Méhu
Technical & hardware support : Manuel Goepfert

Contact : metmap@orbifly.com




SOURCES & CREDITS :

   NOAA